Metar z połowy godziny Komunikat METAR ze strony awiacja.imgw.pl Metar G30 EPGD METAR EPGD 190930Z 34009KT 310V020 9999 FEW031 13/04 Q1024 =